createdAt,value
2023-04-27T06:50:05.459Z,84.9
2023-04-27T06:55:43.517Z,85.4
2023-04-27T07:01:24.565Z,85.4
2023-04-27T07:07:02.929Z,85.5
2023-04-27T07:12:41.240Z,84.9
2023-04-27T07:18:17.715Z,84.2
2023-04-27T07:23:56.147Z,84.8
2023-04-27T07:29:32.681Z,82.6
2023-04-27T07:35:11.315Z,82.2
2023-04-27T07:40:46.774Z,82.4
2023-04-27T07:46:23.834Z,82.9
2023-04-27T07:52:22.570Z,81.5
2023-04-27T07:57:57.163Z,82.1
2023-04-27T08:03:33.659Z,81.5
2023-04-27T08:09:12.094Z,80.8
2023-04-27T08:14:50.916Z,80.1
2023-04-27T08:20:26.588Z,79.6
2023-04-27T08:26:02.069Z,80.2
2023-04-27T08:31:38.502Z,78.3
2023-04-27T08:37:17.689Z,78.2
2023-04-27T08:42:53.468Z,77
2023-04-27T08:48:29.586Z,76.8
2023-04-27T08:54:05.778Z,76.9
2023-04-27T08:59:41.310Z,75.3
2023-04-27T09:05:19.000Z,73.1
2023-04-27T09:10:55.562Z,70.7
2023-04-27T09:16:31.560Z,73
2023-04-27T09:22:07.634Z,70.6
2023-04-27T09:27:43.560Z,72
2023-04-27T09:33:18.698Z,70
2023-04-27T09:38:54.317Z,69.2
2023-04-27T09:44:30.062Z,70.7
2023-04-27T09:50:05.296Z,69.2
2023-04-27T09:55:41.337Z,68.7
2023-04-27T10:01:17.112Z,67.4
2023-04-27T10:06:53.552Z,68
2023-04-27T10:12:33.597Z,66.8
2023-04-27T10:18:10.793Z,66.4
2023-04-27T10:23:48.729Z,66.6
2023-04-27T10:29:25.488Z,64.1
2023-04-27T10:35:01.170Z,61.7
2023-04-27T10:40:37.654Z,62.9
2023-04-27T10:46:14.490Z,61.6
2023-04-27T10:51:50.964Z,59.1
2023-04-27T10:57:26.697Z,60.4
2023-04-27T11:03:02.688Z,60.8
2023-04-27T11:08:39.525Z,61.9
2023-04-27T11:14:15.260Z,60.9
2023-04-27T11:19:52.451Z,59
2023-04-27T11:25:27.718Z,59.8
2023-04-27T11:31:02.643Z,56.9
2023-04-27T11:36:38.789Z,57.7
2023-04-27T11:42:14.529Z,60.8
2023-04-27T11:47:50.005Z,58.8
2023-04-27T11:53:25.875Z,57.3
2023-04-27T11:59:01.342Z,54
2023-04-27T12:04:37.548Z,54.2
2023-04-27T12:10:15.834Z,53.6
2023-04-27T12:15:51.274Z,55.3
2023-04-27T12:21:27.745Z,54.2
2023-04-27T12:27:04.833Z,54.1
2023-04-27T12:32:40.408Z,54.9
2023-04-27T12:38:16.838Z,55
2023-04-27T12:43:53.307Z,55.7
2023-04-27T12:49:31.509Z,52.2
2023-04-27T12:55:15.362Z,52
2023-04-27T13:01:10.138Z,53.5
2023-04-27T13:06:48.282Z,52.3
2023-04-27T13:12:23.713Z,47.8
2023-04-27T13:17:59.646Z,48.9
2023-04-27T13:23:36.410Z,50.4
2023-04-27T13:29:12.653Z,45.7
2023-04-27T13:34:48.467Z,43.7
2023-04-27T13:40:25.016Z,42.4
2023-04-27T13:46:01.623Z,45.4
2023-04-27T13:51:38.235Z,45.1
2023-04-27T13:57:14.195Z,42.3
2023-04-27T14:02:50.653Z,42.4
2023-04-27T14:08:27.707Z,42.8
2023-04-27T14:14:03.456Z,41.4
2023-04-27T14:19:39.257Z,42
2023-04-27T14:25:14.432Z,44.2
2023-04-27T14:30:51.110Z,39.3
2023-04-27T14:36:26.580Z,45.7
2023-04-27T14:42:01.768Z,35.3
2023-04-27T14:47:38.014Z,36.8
2023-04-27T14:53:13.982Z,29.5
2023-04-27T14:58:49.425Z,27.4
2023-04-27T15:04:25.582Z,30.7
2023-04-27T15:10:02.650Z,28.4
2023-04-27T15:15:38.242Z,25.9
2023-04-27T15:21:14.624Z,21.6
2023-04-27T15:26:51.208Z,27.4
2023-04-27T15:32:26.252Z,31.4
2023-04-27T15:38:01.333Z,32.9
2023-04-27T15:43:38.621Z,39
2023-04-27T15:49:14.582Z,36.7
2023-04-27T15:54:51.402Z,37.4
2023-04-27T16:00:27.228Z,39
2023-04-27T16:06:02.904Z,39.1
2023-04-27T16:11:38.334Z,44.2
2023-04-27T16:17:13.816Z,33
2023-04-27T16:22:49.994Z,26.1
2023-04-27T16:28:27.595Z,24.9
2023-04-27T16:34:03.702Z,24.3
2023-04-27T16:39:41.335Z,32.8
2023-04-27T16:45:16.658Z,41.5
2023-04-27T16:50:55.327Z,44.3
2023-04-27T16:56:31.092Z,44.1
2023-04-27T17:02:24.866Z,44.5
2023-04-27T17:08:05.688Z,47.1
2023-04-27T17:13:41.191Z,48.1
2023-04-27T17:19:17.734Z,49.5
2023-04-27T17:24:53.517Z,50.8
2023-04-27T17:30:29.128Z,52.1
2023-04-27T17:36:04.552Z,52.2
2023-04-27T17:41:39.732Z,54.1
2023-04-27T17:47:14.819Z,54.6
2023-04-27T17:52:51.583Z,57
2023-04-27T17:58:28.800Z,58.3
2023-04-27T18:04:05.542Z,60.3
2023-04-27T18:09:42.674Z,60.1
2023-04-27T18:15:18.662Z,61.6
2023-04-27T18:20:54.487Z,65.5
2023-04-27T18:26:30.163Z,65.3
2023-04-27T18:32:06.684Z,63.9
2023-04-27T18:37:42.706Z,68
2023-04-27T18:43:18.191Z,69.5
2023-04-27T18:48:54.537Z,69.4
2023-04-27T18:54:29.731Z,70.7
2023-04-27T19:00:05.468Z,71.1
2023-04-27T19:05:41.291Z,69.9
2023-04-27T19:11:17.970Z,69.7
2023-04-27T19:16:53.444Z,68.4
2023-04-27T19:22:29.204Z,69.3
2023-04-27T19:28:04.701Z,70.5
2023-04-27T19:33:54.724Z,70.3
2023-04-27T19:39:39.821Z,72.2
2023-04-27T19:45:18.444Z,74.5
2023-04-27T19:50:53.878Z,75.4
2023-04-27T19:56:30.769Z,75.1
2023-04-27T20:02:07.724Z,75.6
2023-04-27T20:07:44.779Z,75.6
2023-04-27T20:13:21.585Z,77.6
2023-04-27T20:18:56.988Z,78.3
2023-04-27T20:24:32.513Z,77.8
2023-04-27T20:30:07.749Z,79
2023-04-27T20:35:43.130Z,78.7
2023-04-27T20:41:19.054Z,76.2
2023-04-27T20:47:01.932Z,74.4
2023-04-27T20:52:37.015Z,73.9
2023-04-27T20:58:13.814Z,73.7
2023-04-27T21:03:51.925Z,73.5
2023-04-27T21:09:29.186Z,73.5
2023-04-27T21:15:04.762Z,73.4
2023-04-27T21:20:40.623Z,73.4
2023-04-27T21:26:16.197Z,73.6
2023-04-27T21:31:51.946Z,73.7
2023-04-27T21:37:27.680Z,73.7
